MV Moseldijk — PBWK — position and weather

sailwx.info

Track history (hours):
 
Tides and Currents Weather Stations Pressure Air Temp Water Temp Dewpoint Dewpoint Depression Visibility Wind Speed Wind Dir Waves Ship Positions

MV Moseldijk

Last reported at 2018-Apr-26 01:53 UTC. Time now 2018-Apr-26 02:01 UTC.
Position N 53°44' W 006°11'.

Length 90 m; draft 3.8 m.

Type: Ship. MMSI: 246644000.

Date/timePositionNaut miles runAvg speedWind from/ knotsBaromVisibWave heightAir tempDewpointWater temp
2018-Apr-26 01:53N 53°44' W 006°11'0 0.0
2018-Apr-26 01:29N 53°44' W 006°11'0 0.0
2018-Apr-26 00:56N 53°44' W 006°11'0 0.0
2018-Apr-26 00:29N 53°44' W 006°11'0 0.0
2018-Apr-25 23:59N 53°44' W 006°11'0 0.0
2018-Apr-25 23:29N 53°44' W 006°11'0 0.0
2018-Apr-25 22:56N 53°44' W 006°11'0 0.0
2018-Apr-25 22:20N 53°44' W 006°11'0 0.0
2018-Apr-25 21:59N 53°44' W 006°11'0 0.0
2018-Apr-25 21:29N 53°44' W 006°11'0 0.0
2018-Apr-25 20:59N 53°44' W 006°11'0 0.0
2018-Apr-25 20:29N 53°44' W 006°11'0 0.1
2018-Apr-25 19:59N 53°44' W 006°11'0 0.0
2018-Apr-25 19:29N 53°44' W 006°11'0 0.0
2018-Apr-25 18:59N 53°44' W 006°11'0 0.0
2018-Apr-25 18:29N 53°44' W 006°11'0 0.1
2018-Apr-25 17:47N 53°44' W 006°11'0 0.0
2018-Apr-25 17:29N 53°44' W 006°11'0 0.0
2018-Apr-25 16:53N 53°44' W 006°11'0 0.0
2018-Apr-25 16:26N 53°44' W 006°11'0 0.1
2018-Apr-25 15:59N 53°44' W 006°11'0 0.1
2018-Apr-25 15:29N 53°44' W 006°11'0 0.0
2018-Apr-25 14:59N 53°44' W 006°11'0 0.1
2018-Apr-25 14:29N 53°44' W 006°11'0 0.0
2018-Apr-25 13:59N 53°44' W 006°11'0 0.1
2018-Apr-25 13:23N 53°44' W 006°11'0 0.0
2018-Apr-25 12:53N 53°44' W 006°11'0 0.0
2018-Apr-25 12:29N 53°44' W 006°11'0 0.1
2018-Apr-25 11:59N 53°44' W 006°11'0 0.1
2018-Apr-25 11:29N 53°44' W 006°11'0 0.1
2018-Apr-25 10:59N 53°44' W 006°11'0 0.0
2018-Apr-25 10:20N 53°44' W 006°11'0 0.1
2018-Apr-25 09:59N 53°44' W 006°11'0 0.0
2018-Apr-25 09:05N 53°44' W 006°11'0 0.0
2018-Apr-25 08:44N 53°44' W 006°11'0 0.0
2018-Apr-25 08:29N 53°44' W 006°11'0 0.1
2018-Apr-25 07:59N 53°44' W 006°11'0 0.0
2018-Apr-25 07:29N 53°44' W 006°11'0 0.0
2018-Apr-25 06:59N 53°44' W 006°11'0 0.0
2018-Apr-25 06:23N 53°44' W 006°11'1 3.1
2018-Apr-25 06:00N 53°44' W 006°09'5 9.2
2018-Apr-25 05:30N 53°48' W 006°04'4 8.9
2018-Apr-25 05:00N 53°51' W 005°59'5 9.0
2018-Apr-25 04:30N 53°55' W 005°54'5 9.5
2018-Apr-25 04:00N 53°59' W 005°49'6 9.4
2018-Apr-25 03:19N 54°04' W 005°42'3 9.3
2018-Apr-25 02:59N 54°06' W 005°39'5 9.4
2018-Apr-25 02:28N 54°10' W 005°34'6 9.6
2018-Apr-25 01:53N 54°14' W 005°28'11 9.6
2018-Apr-25 00:42N 54°23' W 005°16'2 9.8
2018-Apr-25 00:30N 54°25' W 005°17'5 9.9
2018-Apr-25 00:00N 54°30' W 005°20'5 9.5
2018-Apr-24 23:30N 54°34' W 005°22'5 9.0
2018-Apr-24 23:00N 54°39' W 005°25'4 8.4
2018-Apr-24 22:30N 54°43' W 005°27'4 8.5
2018-Apr-24 22:00N 54°43' W 005°35'510.0
2018-Apr-24 21:30N 54°42' W 005°43'6 9.4
2018-Apr-24 20:54N 54°39' W 005°51'3 5.2
2018-Apr-24 20:24N 54°37' W 005°55'0 0.0
2018-Apr-24 19:54N 54°37' W 005°55'0 0.0
2018-Apr-24 19:12N 54°37' W 005°55'0 0.0
2018-Apr-24 18:51N 54°37' W 005°55'0 0.0
2018-Apr-24 18:27N 54°37' W 005°55'0 0.0
2018-Apr-24 18:00N 54°37' W 005°55'0 0.0
2018-Apr-24 17:12N 54°37' W 005°55'0 0.0
2018-Apr-24 16:06N 54°37' W 005°55'0 0.0
2018-Apr-24 15:39N 54°37' W 005°55'0 0.0
2018-Apr-24 15:21N 54°37' W 005°55'0 0.0
2018-Apr-24 14:48N 54°37' W 005°55'0 0.0
2018-Apr-24 14:30N 54°37' W 005°55'0 0.0
2018-Apr-24 09:39N 54°37' W 005°55'0 0.0
2018-Apr-24 09:21N 54°37' W 005°55'0 0.0
2018-Apr-24 06:57N 54°37' W 005°55'0 0.0
2018-Apr-24 04:42N 54°37' W 005°55'0 0.0
2018-Apr-24 04:30N 54°37' W 005°55'0 0.0
2018-Apr-24 04:00N 54°37' W 005°55'0 0.0
2018-Apr-24 03:12N 54°37' W 005°55'0 0.0
2018-Apr-24 02:57N 54°37' W 005°55'0 0.0
2018-Apr-24 02:15N 54°37' W 005°55'0 0.0
2018-Apr-24 01:06N 54°37' W 005°55'0 0.0
2018-Apr-24 01:00N 54°37' W 005°55'0 0.0
2018-Apr-24 00:27N 54°37' W 005°55'0 0.0
2018-Apr-23 23:12N 54°37' W 005°55'0 0.0
2018-Apr-23 23:00N 54°37' W 005°55'0 0.0
2018-Apr-23 22:24N 54°37' W 005°55'0 0.0
2018-Apr-23 20:57N 54°37' W 005°55'0 0.0
2018-Apr-23 20:30N 54°37' W 005°55'0 0.0
2018-Apr-23 19:42N 54°37' W 005°55'0 0.0
2018-Apr-23 19:27N 54°37' W 005°55'0 0.0
2018-Apr-23 18:51N 54°37' W 005°55'0 0.0
2018-Apr-23 17:03N 54°37' W 005°55'0 0.0
2018-Apr-23 16:57N 54°37' W 005°55'0 0.0
2018-Apr-23 16:30N 54°37' W 005°55'0 0.0
2018-Apr-23 15:18N 54°37' W 005°55'0 0.0
2018-Apr-23 14:57N 54°37' W 005°55'0 0.0
2018-Apr-23 14:30N 54°37' W 005°55'0 0.0
2018-Apr-23 13:45N 54°37' W 005°55'0 0.0
2018-Apr-23 13:21N 54°37' W 005°55'0 0.0
2018-Apr-23 13:00N 54°37' W 005°55'0 0.0
2018-Apr-23 12:21N 54°37' W 005°55'0 0.0
2018-Apr-23 11:06N 54°37' W 005°55'0 0.0
2018-Apr-23 10:39N 54°37' W 005°55'0 0.0
2018-Apr-23 10:27N 54°37' W 005°55'0 0.0
2018-Apr-23 06:27N 54°37' W 005°55'0 0.0
2018-Apr-23 05:39N 54°37' W 005°55'0 0.0
2018-Apr-23 04:27N 54°37' W 005°55'0 0.0
2018-Apr-23 04:00N 54°37' W 005°55'0 0.0
2018-Apr-23 03:24N 54°37' W 005°55'0 0.0
2018-Apr-23 02:39N 54°37' W 005°55'0 0.0
2018-Apr-23 02:27N 54°37' W 005°55'0 0.0
2018-Apr-23 01:51N 54°37' W 005°55'0 0.0
2018-Apr-22 23:42N 54°37' W 005°55'0 0.0
2018-Apr-22 21:06N 54°37' W 005°55'0 0.0
2018-Apr-22 21:00N 54°37' W 005°55'0 0.0
2018-Apr-22 20:24N 54°37' W 005°55'0 0.0
2018-Apr-22 19:00N 54°37' W 005°55'0 0.0
2018-Apr-22 18:30N 54°37' W 005°55'0 0.0
2018-Apr-22 13:33N 54°37' W 005°55'0 0.0
2018-Apr-22 13:30N 54°37' W 005°55'0 0.0
2018-Apr-22 12:03N 54°37' W 005°55'0 0.0
2018-Apr-22 11:57N 54°37' W 005°55'0 0.0
2018-Apr-22 11:27N 54°37' W 005°55'0 0.0
2018-Apr-22 09:39N 54°37' W 005°55'0 0.0
2018-Apr-22 07:51N 54°37' W 005°55'0 0.0
2018-Apr-22 07:27N 54°37' W 005°55'0 0.0
2018-Apr-22 06:48N 54°37' W 005°55'0 0.0
2018-Apr-22 06:27N 54°37' W 005°55'0 0.0
2018-Apr-22 05:54N 54°37' W 005°55'0 0.0
2018-Apr-22 05:18N 54°37' W 005°55'0 0.0
2018-Apr-22 04:57N 54°37' W 005°55'0 0.0
2018-Apr-22 03:09N 54°37' W 005°55'0 0.0
2018-Apr-22 02:54N 54°37' W 005°55'0 0.0
2018-Apr-22 02:30N 54°37' W 005°55'0 0.0
2018-Apr-22 00:30N 54°37' W 005°55'0 0.0
2018-Apr-22 00:00N 54°37' W 005°55'0 0.0
2018-Apr-21 23:24N 54°37' W 005°55'0 0.0
2018-Apr-21 21:31N 54°37' W 005°55'0 0.0
2018-Apr-21 21:10N 54°37' W 005°55'0 0.0
2018-Apr-21 20:56N 54°37' W 005°55'0 0.0
2018-Apr-21 20:29N 54°37' W 005°55'0 0.0
2018-Apr-21 20:00N 54°37' W 005°55'0 0.1
2018-Apr-21 19:28N 54°37' W 005°55'2 4.1
2018-Apr-21 18:57N 54°39' W 005°52'410.0
2018-Apr-21 18:30N 54°42' W 005°46'4 8.3
2018-Apr-21 18:00N 54°43' W 005°40'5 9.6
2018-Apr-21 17:30N 54°44' W 005°32'510.2
2018-Apr-21 17:00N 54°40' W 005°26'611.9
2018-Apr-21 16:30N 54°34' W 005°23'611.1
2018-Apr-21 16:00N 54°29' W 005°19'510.4
2018-Apr-21 15:30N 54°24' W 005°17'510.1
2018-Apr-21 15:00N 54°19' W 005°17'510.2
2018-Apr-21 14:30N 54°14' W 005°18'610.2
2018-Apr-21 13:57N 54°08' W 005°17'3 5.8
2018-Apr-21 13:24N 54°05' W 005°18'0 1.0
2018-Apr-21 13:00N 54°05' W 005°18'710.5
2018-Apr-21 12:20N 53°58' W 005°19'5710.1
2018-Apr-21 06:41N 53°01' W 005°28'2 8.8
2018-Apr-21 06:28N 52°59' W 005°29'4 8.8
2018-Apr-21 06:00N 52°55' W 005°31'5 8.8
2018-Apr-21 05:29N 52°51' W 005°32'4 8.4
2018-Apr-21 05:00N 52°47' W 005°33'4 8.7
2018-Apr-21 04:30N 52°42' W 005°34'16 9.6
2018-Apr-21 02:49N 52°26' W 005°36'510.9
2018-Apr-21 02:24N 52°22' W 005°37'411.3
2018-Apr-21 02:00N 52°17' W 005°38'1312.0
2018-Apr-21 00:56N 52°04' W 005°40'2213.0
2018-Apr-20 23:15N 51°43' W 005°50'1312.2
2018-Apr-20 22:10N 51°31' W 005°55'211.8
2018-Apr-20 21:58N 51°28' W 005°56'611.7
2018-Apr-20 21:30N 51°23' W 005°59'611.5
2018-Apr-20 21:00N 51°18' W 006°01'2711.4
2018-Apr-20 18:39N 50°52' W 006°14'311.4
2018-Apr-20 18:25N 50°49' W 006°15'611.4
2018-Apr-20 17:54N 50°44' W 006°18'2211.3
2018-Apr-20 15:55N 50°23' W 006°29'511.0
2018-Apr-20 15:30N 50°18' W 006°31'810.8
2018-Apr-20 14:48N 50°11' W 006°34'310.6
2018-Apr-20 14:30N 50°08' W 006°35'510.4
2018-Apr-20 13:59N 50°03' W 006°38'510.0
2018-Apr-20 13:30N 49°58' W 006°40'510.0
2018-Apr-20 13:00N 49°53' W 006°43'5 9.9
2018-Apr-20 12:30N 49°49' W 006°45'  
2018-Apr-18 00:40N 40°11' W 009°50'3 7.3
2018-Apr-18 00:14N 40°07' W 009°50'2 7.6
2018-Apr-18 00:00N 40°06' W 009°50'9 7.3
2018-Apr-17 22:42N 39°56' W 009°50'1 7.4
2018-Apr-17 22:30N 39°55' W 009°50'4 7.2
2018-Apr-17 21:59N 39°51' W 009°50'3 7.3
2018-Apr-17 21:30N 39°48' W 009°50'4 7.2
2018-Apr-17 21:00N 39°44' W 009°50'4 7.4
2018-Apr-17 20:30N 39°40' W 009°51'5 7.4
2018-Apr-17 19:54N 39°36' W 009°51'3 8.4
2018-Apr-17 19:30N 39°33' W 009°51'510.3
2018-Apr-17 18:59N 39°27' W 009°50'510.7
2018-Apr-17 18:30N 39°22' W 009°50'610.7
2018-Apr-17 17:59N 39°16' W 009°50'510.8
2018-Apr-17 17:30N 39°11' W 009°50'511.0
2018-Apr-17 17:00N 39°06' W 009°50'511.0
2018-Apr-17 16:30N 39°00' W 009°51'510.6
2018-Apr-17 16:00N 38°55' W 009°51'510.7
2018-Apr-17 15:30N 38°50' W 009°52'510.8
2018-Apr-17 15:00N 38°44' W 009°52'510.6
2018-Apr-17 14:30N 38°39' W 009°50'510.6
2018-Apr-17 14:00N 38°34' W 009°48'510.6
2018-Apr-17 13:30N 38°29' W 009°47'510.5
2018-Apr-17 12:59N 38°24' W 009°45'510.2
2018-Apr-17 12:30N 38°19' W 009°44'610.4
2018-Apr-17 11:58N 38°13' W 009°42'1510.5
2018-Apr-17 10:35N 37°59' W 009°38'1010.5
2018-Apr-17 09:41N 37°50' W 009°36'210.5
2018-Apr-17 09:30N 37°48' W 009°35'710.4
2018-Apr-17 08:47N 37°41' W 009°33'310.4
2018-Apr-17 08:30N 37°38' W 009°32'217 9.2
2018-Apr-16 08:58N 35°59' W 005°31'3 7.1
2018-Apr-16 08:30N 35°60' W 005°27'3 6.6
2018-Apr-16 08:00N 36°01' W 005°23'3 6.8
2018-Apr-16 07:30N 36°01' W 005°19'4 7.8
2018-Apr-16 06:59N 36°02' W 005°14'4 8.1
2018-Apr-16 06:30N 36°03' W 005°09'  
Track history (hours):
 
Tides and Currents Weather Stations Pressure Air Temp Water Temp Dewpoint Dewpoint Depression Visibility Wind Speed Wind Dir Waves Ship Positions

MV Moseldijk

Last reported at 2018-Apr-26 01:53 UTC. Time now 2018-Apr-26 02:01 UTC.
Position N 53°44' W 006°11'.

Length 90 m; draft 3.8 m.

Type: Ship. MMSI: 246644000.

Date/timePositionNaut miles runAvg speedWind from/ knotsBaromVisibWave heightAir tempDewpointWater temp
2018-Apr-26 01:53N 53°44' W 006°11'0 0.0
2018-Apr-26 01:29N 53°44' W 006°11'0 0.0
2018-Apr-26 00:56N 53°44' W 006°11'0 0.0
2018-Apr-26 00:29N 53°44' W 006°11'0 0.0
2018-Apr-25 23:59N 53°44' W 006°11'0 0.0
2018-Apr-25 23:29N 53°44' W 006°11'0 0.0
2018-Apr-25 22:56N 53°44' W 006°11'0 0.0
2018-Apr-25 22:20N 53°44' W 006°11'0 0.0
2018-Apr-25 21:59N 53°44' W 006°11'0 0.0
2018-Apr-25 21:29N 53°44' W 006°11'0 0.0
2018-Apr-25 20:59N 53°44' W 006°11'0 0.0
2018-Apr-25 20:29N 53°44' W 006°11'0 0.1
2018-Apr-25 19:59N 53°44' W 006°11'0 0.0
2018-Apr-25 19:29N 53°44' W 006°11'0 0.0
2018-Apr-25 18:59N 53°44' W 006°11'0 0.0
2018-Apr-25 18:29N 53°44' W 006°11'0 0.1
2018-Apr-25 17:47N 53°44' W 006°11'0 0.0
2018-Apr-25 17:29N 53°44' W 006°11'0 0.0
2018-Apr-25 16:53N 53°44' W 006°11'0 0.0
2018-Apr-25 16:26N 53°44' W 006°11'0 0.1
2018-Apr-25 15:59N 53°44' W 006°11'0 0.1
2018-Apr-25 15:29N 53°44' W 006°11'0 0.0
2018-Apr-25 14:59N 53°44' W 006°11'0 0.1
2018-Apr-25 14:29N 53°44' W 006°11'0 0.0
2018-Apr-25 13:59N 53°44' W 006°11'0 0.1
2018-Apr-25 13:23N 53°44' W 006°11'0 0.0
2018-Apr-25 12:53N 53°44' W 006°11'0 0.0
2018-Apr-25 12:29N 53°44' W 006°11'0 0.1
2018-Apr-25 11:59N 53°44' W 006°11'0 0.1
2018-Apr-25 11:29N 53°44' W 006°11'0 0.1
2018-Apr-25 10:59N 53°44' W 006°11'0 0.0
2018-Apr-25 10:20N 53°44' W 006°11'0 0.1
2018-Apr-25 09:59N 53°44' W 006°11'0 0.0
2018-Apr-25 09:05N 53°44' W 006°11'0 0.0
2018-Apr-25 08:44N 53°44' W 006°11'0 0.0
2018-Apr-25 08:29N 53°44' W 006°11'0 0.1
2018-Apr-25 07:59N 53°44' W 006°11'0 0.0
2018-Apr-25 07:29N 53°44' W 006°11'0 0.0
2018-Apr-25 06:59N 53°44' W 006°11'0 0.0
2018-Apr-25 06:23N 53°44' W 006°11'1 3.1
2018-Apr-25 06:00N 53°44' W 006°09'5 9.2
2018-Apr-25 05:30N 53°48' W 006°04'4 8.9
2018-Apr-25 05:00N 53°51' W 005°59'5 9.0
2018-Apr-25 04:30N 53°55' W 005°54'5 9.5
2018-Apr-25 04:00N 53°59' W 005°49'6 9.4
2018-Apr-25 03:19N 54°04' W 005°42'3 9.3
2018-Apr-25 02:59N 54°06' W 005°39'5 9.4
2018-Apr-25 02:28N 54°10' W 005°34'6 9.6
2018-Apr-25 01:53N 54°14' W 005°28'11 9.6
2018-Apr-25 00:42N 54°23' W 005°16'2 9.8
2018-Apr-25 00:30N 54°25' W 005°17'5 9.9
2018-Apr-25 00:00N 54°30' W 005°20'5 9.5
2018-Apr-24 23:30N 54°34' W 005°22'5 9.0
2018-Apr-24 23:00N 54°39' W 005°25'4 8.4
2018-Apr-24 22:30N 54°43' W 005°27'4 8.5
2018-Apr-24 22:00N 54°43' W 005°35'510.0
2018-Apr-24 21:30N 54°42' W 005°43'6 9.4
2018-Apr-24 20:54N 54°39' W 005°51'3 5.2
2018-Apr-24 20:24N 54°37' W 005°55'0 0.0
2018-Apr-24 19:54N 54°37' W 005°55'0 0.0
2018-Apr-24 19:12N 54°37' W 005°55'0 0.0
2018-Apr-24 18:51N 54°37' W 005°55'0 0.0
2018-Apr-24 18:27N 54°37' W 005°55'0 0.0
2018-Apr-24 18:00N 54°37' W 005°55'0 0.0
2018-Apr-24 17:12N 54°37' W 005°55'0 0.0
2018-Apr-24 16:06N 54°37' W 005°55'0 0.0
2018-Apr-24 15:39N 54°37' W 005°55'0 0.0
2018-Apr-24 15:21N 54°37' W 005°55'0 0.0
2018-Apr-24 14:48N 54°37' W 005°55'0 0.0
2018-Apr-24 14:30N 54°37' W 005°55'0 0.0
2018-Apr-24 09:39N 54°37' W 005°55'0 0.0
2018-Apr-24 09:21N 54°37' W 005°55'0 0.0
2018-Apr-24 06:57N 54°37' W 005°55'0 0.0
2018-Apr-24 04:42N 54°37' W 005°55'0 0.0
2018-Apr-24 04:30N 54°37' W 005°55'0 0.0
2018-Apr-24 04:00N 54°37' W 005°55'0 0.0
2018-Apr-24 03:12N 54°37' W 005°55'0 0.0
2018-Apr-24 02:57N 54°37' W 005°55'0 0.0
2018-Apr-24 02:15N 54°37' W 005°55'0 0.0
2018-Apr-24 01:06N 54°37' W 005°55'0 0.0
2018-Apr-24 01:00N 54°37' W 005°55'0 0.0
2018-Apr-24 00:27N 54°37' W 005°55'0 0.0
2018-Apr-23 23:12N 54°37' W 005°55'0 0.0
2018-Apr-23 23:00N 54°37' W 005°55'0 0.0
2018-Apr-23 22:24N 54°37' W 005°55'0 0.0
2018-Apr-23 20:57N 54°37' W 005°55'0 0.0
2018-Apr-23 20:30N 54°37' W 005°55'0 0.0
2018-Apr-23 19:42N 54°37' W 005°55'0 0.0
2018-Apr-23 19:27N 54°37' W 005°55'0 0.0
2018-Apr-23 18:51N 54°37' W 005°55'0 0.0
2018-Apr-23 17:03N 54°37' W 005°55'0 0.0
2018-Apr-23 16:57N 54°37' W 005°55'0 0.0
2018-Apr-23 16:30N 54°37' W 005°55'0 0.0
2018-Apr-23 15:18N 54°37' W 005°55'0 0.0
2018-Apr-23 14:57N 54°37' W 005°55'0 0.0
2018-Apr-23 14:30N 54°37' W 005°55'0 0.0
2018-Apr-23 13:45N 54°37' W 005°55'0 0.0
2018-Apr-23 13:21N 54°37' W 005°55'0 0.0
2018-Apr-23 13:00N 54°37' W 005°55'0 0.0
2018-Apr-23 12:21N 54°37' W 005°55'0 0.0
2018-Apr-23 11:06N 54°37' W 005°55'0 0.0
2018-Apr-23 10:39N 54°37' W 005°55'0 0.0
2018-Apr-23 10:27N 54°37' W 005°55'0 0.0
2018-Apr-23 06:27N 54°37' W 005°55'0 0.0
2018-Apr-23 05:39N 54°37' W 005°55'0 0.0
2018-Apr-23 04:27N 54°37' W 005°55'0 0.0
2018-Apr-23 04:00N 54°37' W 005°55'0 0.0
2018-Apr-23 03:24N 54°37' W 005°55'0 0.0
2018-Apr-23 02:39N 54°37' W 005°55'0 0.0
2018-Apr-23 02:27N 54°37' W 005°55'0 0.0
2018-Apr-23 01:51N 54°37' W 005°55'0 0.0
2018-Apr-22 23:42N 54°37' W 005°55'0 0.0
2018-Apr-22 21:06N 54°37' W 005°55'0 0.0
2018-Apr-22 21:00N 54°37' W 005°55'0 0.0
2018-Apr-22 20:24N 54°37' W 005°55'0 0.0
2018-Apr-22 19:00N 54°37' W 005°55'0 0.0
2018-Apr-22 18:30N 54°37' W 005°55'0 0.0
2018-Apr-22 13:33N 54°37' W 005°55'0 0.0
2018-Apr-22 13:30N 54°37' W 005°55'0 0.0
2018-Apr-22 12:03N 54°37' W 005°55'0 0.0
2018-Apr-22 11:57N 54°37' W 005°55'0 0.0
2018-Apr-22 11:27N 54°37' W 005°55'0 0.0
2018-Apr-22 09:39N 54°37' W 005°55'0 0.0
2018-Apr-22 07:51N 54°37' W 005°55'0 0.0
2018-Apr-22 07:27N 54°37' W 005°55'0 0.0
2018-Apr-22 06:48N 54°37' W 005°55'0 0.0
2018-Apr-22 06:27N 54°37' W 005°55'0 0.0
2018-Apr-22 05:54N 54°37' W 005°55'0 0.0
2018-Apr-22 05:18N 54°37' W 005°55'0 0.0
2018-Apr-22 04:57N 54°37' W 005°55'0 0.0
2018-Apr-22 03:09N 54°37' W 005°55'0 0.0
2018-Apr-22 02:54N 54°37' W 005°55'0 0.0
2018-Apr-22 02:30N 54°37' W 005°55'0 0.0
2018-Apr-22 00:30N 54°37' W 005°55'0 0.0
2018-Apr-22 00:00N 54°37' W 005°55'0 0.0
2018-Apr-21 23:24N 54°37' W 005°55'0 0.0
2018-Apr-21 21:31N 54°37' W 005°55'0 0.0
2018-Apr-21 21:10N 54°37' W 005°55'0 0.0
2018-Apr-21 20:56N 54°37' W 005°55'0 0.0
2018-Apr-21 20:29N 54°37' W 005°55'0 0.0
2018-Apr-21 20:00N 54°37' W 005°55'0 0.1
2018-Apr-21 19:28N 54°37' W 005°55'2 4.1
2018-Apr-21 18:57N 54°39' W 005°52'410.0
2018-Apr-21 18:30N 54°42' W 005°46'4 8.3
2018-Apr-21 18:00N 54°43' W 005°40'5 9.6
2018-Apr-21 17:30N 54°44' W 005°32'510.2
2018-Apr-21 17:00N 54°40' W 005°26'611.9
2018-Apr-21 16:30N 54°34' W 005°23'611.1
2018-Apr-21 16:00N 54°29' W 005°19'510.4
2018-Apr-21 15:30N 54°24' W 005°17'510.1
2018-Apr-21 15:00N 54°19' W 005°17'510.2
2018-Apr-21 14:30N 54°14' W 005°18'610.2
2018-Apr-21 13:57N 54°08' W 005°17'3 5.8
2018-Apr-21 13:24N 54°05' W 005°18'0 1.0
2018-Apr-21 13:00N 54°05' W 005°18'710.5
2018-Apr-21 12:20N 53°58' W 005°19'5710.1
2018-Apr-21 06:41N 53°01' W 005°28'2 8.8
2018-Apr-21 06:28N 52°59' W 005°29'4 8.8
2018-Apr-21 06:00N 52°55' W 005°31'5 8.8
2018-Apr-21 05:29N 52°51' W 005°32'4 8.4
2018-Apr-21 05:00N 52°47' W 005°33'4 8.7
2018-Apr-21 04:30N 52°42' W 005°34'16 9.6
2018-Apr-21 02:49N 52°26' W 005°36'510.9
2018-Apr-21 02:24N 52°22' W 005°37'411.3
2018-Apr-21 02:00N 52°17' W 005°38'1312.0
2018-Apr-21 00:56N 52°04' W 005°40'2213.0
2018-Apr-20 23:15N 51°43' W 005°50'1312.2
2018-Apr-20 22:10N 51°31' W 005°55'211.8
2018-Apr-20 21:58N 51°28' W 005°56'611.7
2018-Apr-20 21:30N 51°23' W 005°59'611.5
2018-Apr-20 21:00N 51°18' W 006°01'2711.4
2018-Apr-20 18:39N 50°52' W 006°14'311.4
2018-Apr-20 18:25N 50°49' W 006°15'611.4
2018-Apr-20 17:54N 50°44' W 006°18'2211.3
2018-Apr-20 15:55N 50°23' W 006°29'511.0
2018-Apr-20 15:30N 50°18' W 006°31'810.8
2018-Apr-20 14:48N 50°11' W 006°34'310.6
2018-Apr-20 14:30N 50°08' W 006°35'510.4
2018-Apr-20 13:59N 50°03' W 006°38'510.0
2018-Apr-20 13:30N 49°58' W 006°40'510.0
2018-Apr-20 13:00N 49°53' W 006°43'5 9.9
2018-Apr-20 12:30N 49°49' W 006°45'  
2018-Apr-18 00:40N 40°11' W 009°50'3 7.3
2018-Apr-18 00:14N 40°07' W 009°50'2 7.6
2018-Apr-18 00:00N 40°06' W 009°50'9 7.3
2018-Apr-17 22:42N 39°56' W 009°50'1 7.4
2018-Apr-17 22:30N 39°55' W 009°50'4 7.2
2018-Apr-17 21:59N 39°51' W 009°50'3 7.3
2018-Apr-17 21:30N 39°48' W 009°50'4 7.2
2018-Apr-17 21:00N 39°44' W 009°50'4 7.4
2018-Apr-17 20:30N 39°40' W 009°51'5 7.4
2018-Apr-17 19:54N 39°36' W 009°51'3 8.4
2018-Apr-17 19:30N 39°33' W 009°51'510.3
2018-Apr-17 18:59N 39°27' W 009°50'510.7
2018-Apr-17 18:30N 39°22' W 009°50'610.7
2018-Apr-17 17:59N 39°16' W 009°50'510.8
2018-Apr-17 17:30N 39°11' W 009°50'511.0
2018-Apr-17 17:00N 39°06' W 009°50'511.0
2018-Apr-17 16:30N 39°00' W 009°51'510.6
2018-Apr-17 16:00N 38°55' W 009°51'510.7
2018-Apr-17 15:30N 38°50' W 009°52'510.8
2018-Apr-17 15:00N 38°44' W 009°52'510.6
2018-Apr-17 14:30N 38°39' W 009°50'510.6
2018-Apr-17 14:00N 38°34' W 009°48'510.6
2018-Apr-17 13:30N 38°29' W 009°47'510.5
2018-Apr-17 12:59N 38°24' W 009°45'510.2
2018-Apr-17 12:30N 38°19' W 009°44'610.4
2018-Apr-17 11:58N 38°13' W 009°42'1510.5
2018-Apr-17 10:35N 37°59' W 009°38'1010.5
2018-Apr-17 09:41N 37°50' W 009°36'210.5
2018-Apr-17 09:30N 37°48' W 009°35'710.4
2018-Apr-17 08:47N 37°41' W 009°33'310.4
2018-Apr-17 08:30N 37°38' W 009°32'217 9.2
2018-Apr-16 08:58N 35°59' W 005°31'3 7.1
2018-Apr-16 08:30N 35°60' W 005°27'3 6.6
2018-Apr-16 08:00N 36°01' W 005°23'3 6.8
2018-Apr-16 07:30N 36°01' W 005°19'4 7.8
2018-Apr-16 06:59N 36°02' W 005°14'4 8.1
2018-Apr-16 06:30N 36°03' W 005°09'  

Dump ship's entire track history